createdAt,value
2018-03-06T00:01:48.381Z,0.40
2018-03-06T00:04:19.832Z,0.60
2018-03-06T00:06:50.502Z,0.60
2018-03-06T00:09:21.997Z,0.60
2018-03-06T00:11:52.680Z,0.50
2018-03-06T00:14:23.303Z,0.50
2018-03-06T00:16:53.610Z,0.40
2018-03-06T00:19:24.332Z,0.40
2018-03-06T00:21:55.019Z,0.30
2018-03-06T00:24:25.298Z,0.30
2018-03-06T00:26:55.883Z,0.30
2018-03-06T00:29:27.583Z,0.30
2018-03-06T00:31:58.395Z,0.50
2018-03-06T00:34:29.374Z,0.40
2018-03-06T00:37:01.892Z,0.60
2018-03-06T00:39:32.843Z,0.80
2018-03-06T00:42:03.540Z,1.00
2018-03-06T00:44:33.779Z,1.10
2018-03-06T00:47:03.993Z,1.10
2018-03-06T00:49:35.000Z,1.20
2018-03-06T00:52:06.320Z,1.20
2018-03-06T00:54:37.100Z,1.20
2018-03-06T00:57:08.611Z,0.90
2018-03-06T00:59:40.660Z,0.80
2018-03-06T01:02:11.690Z,0.80
2018-03-06T01:04:42.318Z,0.80
2018-03-06T01:07:13.426Z,0.80
2018-03-06T01:09:44.820Z,1.10
2018-03-06T01:12:15.432Z,1.00
2018-03-06T01:14:46.479Z,1.30
2018-03-06T01:17:16.972Z,1.10
2018-03-06T01:19:47.984Z,1.20
2018-03-06T01:22:20.432Z,1.40
2018-03-06T01:24:51.981Z,1.50
2018-03-06T01:27:22.889Z,1.50
2018-03-06T01:29:53.561Z,1.20
2018-03-06T01:32:24.257Z,1.20
2018-03-06T01:34:54.905Z,0.70
2018-03-06T01:37:26.326Z,0.70
2018-03-06T01:39:57.663Z,0.70
2018-03-06T01:42:28.564Z,0.90
2018-03-06T01:44:59.779Z,0.60
2018-03-06T01:47:31.297Z,0.40
2018-03-06T01:50:03.069Z,0.30
2018-03-06T01:52:34.808Z,0.30
2018-03-06T01:55:06.342Z,0.70
2018-03-06T01:57:37.236Z,0.70
2018-03-06T02:00:08.067Z,0.60
2018-03-06T02:02:39.160Z,0.40
2018-03-06T02:05:10.104Z,0.40
2018-03-06T02:07:41.683Z,0.30
2018-03-06T02:10:12.420Z,0.30
2018-03-06T02:12:43.710Z,0.20
2018-03-06T02:15:14.741Z,0.20
2018-03-06T02:17:45.020Z,0.20
2018-03-06T02:20:16.475Z,0.60
2018-03-06T02:22:47.963Z,0.70
2018-03-06T02:25:18.659Z,0.70
2018-03-06T02:27:49.316Z,0.40
2018-03-06T02:30:19.995Z,0.20
2018-03-06T02:32:51.508Z,0.10
2018-03-06T02:35:23.047Z,0.20
2018-03-06T02:37:53.761Z,0.10
2018-03-06T02:40:24.954Z,0.20
2018-03-06T02:42:56.040Z,0.10
2018-03-06T02:45:27.363Z,0.20
2018-03-06T02:47:58.048Z,0.20
2018-03-06T02:50:29.970Z,0.10
2018-03-06T02:53:01.433Z,0.10
2018-03-06T02:55:32.094Z,0.10
2018-03-06T02:58:03.324Z,0.10
2018-03-06T03:00:35.488Z,0.20
2018-03-06T03:03:07.250Z,0.20
2018-03-06T03:05:38.157Z,0.20
2018-03-06T03:08:09.052Z,0.40
2018-03-06T03:10:40.892Z,0.30
2018-03-06T03:13:11.564Z,0.30
2018-03-06T03:15:42.528Z,0.40
2018-03-06T03:18:12.942Z,0.70
2018-03-06T03:20:44.224Z,0.90
2018-03-06T03:23:15.691Z,0.90
2018-03-06T03:25:46.480Z,0.90
2018-03-06T03:28:17.163Z,0.90
2018-03-06T03:30:48.173Z,1.20
2018-03-06T03:33:18.795Z,1.10
2018-03-06T03:35:49.976Z,1.30
2018-03-06T03:38:20.803Z,1.20
2018-03-06T03:44:41.015Z,0.90
2018-03-06T03:47:12.468Z,0.60
2018-03-06T03:49:43.933Z,0.20
2018-03-06T03:52:15.145Z,0.10
2018-03-06T03:54:46.469Z,0.10
2018-03-06T03:57:17.517Z,0.40
2018-03-06T03:59:48.045Z,0.70
2018-03-06T04:02:19.025Z,0.80
2018-03-06T04:04:49.602Z,1.00
2018-03-06T04:07:20.514Z,0.90
2018-03-06T04:09:51.528Z,0.70
2018-03-06T04:12:22.805Z,1.10
2018-03-06T04:14:53.657Z,1.00
2018-03-06T04:17:24.903Z,1.20
2018-03-06T04:20:09.826Z,1.40
2018-03-06T04:22:50.748Z,1.50
2018-03-06T04:25:22.537Z,1.30
2018-03-06T04:27:53.486Z,1.40
2018-03-06T04:30:25.121Z,1.40
2018-03-06T04:32:59.410Z,1.50
2018-03-06T04:35:30.551Z,1.40
2018-03-06T04:38:02.020Z,1.70
2018-03-06T04:40:32.678Z,1.70
2018-03-06T04:43:31.597Z,1.80
2018-03-06T04:46:02.408Z,1.90
2018-03-06T04:48:32.933Z,1.50
2018-03-06T04:51:04.516Z,1.30
2018-03-06T04:53:34.778Z,1.50
2018-03-06T04:56:05.383Z,1.30
2018-03-06T04:58:36.271Z,1.40
2018-03-06T05:01:07.637Z,1.20
2018-03-06T05:03:39.293Z,1.30
2018-03-06T05:06:09.964Z,1.20
2018-03-06T05:08:43.889Z,1.00
2018-03-06T05:11:14.864Z,1.20
2018-03-06T05:13:45.869Z,1.50
2018-03-06T05:16:16.365Z,1.60
2018-03-06T05:18:52.351Z,1.90
2018-03-06T05:21:23.138Z,1.90
2018-03-06T05:23:55.000Z,1.70
2018-03-06T05:26:26.659Z,0.70
2018-03-06T05:28:57.314Z,0.70
2018-03-06T05:31:28.128Z,0.80
2018-03-06T05:33:58.849Z,1.00
2018-03-06T05:36:29.602Z,1.20
2018-03-06T05:39:03.907Z,1.20
2018-03-06T05:41:41.185Z,1.20
2018-03-06T05:44:11.543Z,0.60
2018-03-06T05:46:42.329Z,0.30
2018-03-06T05:49:13.368Z,0.20
2018-03-06T05:51:44.586Z,0.20
2018-03-06T05:54:23.860Z,0.20
2018-03-06T05:56:55.300Z,0.00
2018-03-06T06:03:08.760Z,0.70
2018-03-06T06:05:40.848Z,0.80
2018-03-06T06:08:13.128Z,0.80
2018-03-06T06:10:44.009Z,0.90
2018-03-06T06:13:15.513Z,1.10
2018-03-06T06:15:49.533Z,1.10
2018-03-06T06:18:20.676Z,0.70
2018-03-06T06:20:51.531Z,0.60
2018-03-06T06:23:22.306Z,0.70
2018-03-06T06:25:57.323Z,0.80
2018-03-06T06:32:21.966Z,0.80
2018-03-06T06:35:02.320Z,0.90
2018-03-06T06:37:33.328Z,1.10
2018-03-06T06:40:04.641Z,1.20
2018-03-06T06:42:38.614Z,1.50
2018-03-06T06:45:17.233Z,1.30
2018-03-06T06:47:53.320Z,1.50
2018-03-06T06:50:35.599Z,1.50
2018-03-06T06:53:07.818Z,1.70
2018-03-06T06:55:39.391Z,2.20
2018-03-06T06:58:11.333Z,2.20
2018-03-06T07:00:43.808Z,1.70
2018-03-06T07:03:16.052Z,1.70
2018-03-06T07:05:47.836Z,1.70
2018-03-06T07:08:20.322Z,1.90
2018-03-06T07:11:12.681Z,1.40
2018-03-06T07:13:44.102Z,1.40
2018-03-06T07:16:16.618Z,1.20
2018-03-06T07:18:48.585Z,1.30
2018-03-06T07:21:20.301Z,1.60
2018-03-06T07:23:52.727Z,2.00
2018-03-06T07:26:24.721Z,1.90
2018-03-06T07:28:56.628Z,1.90
2018-03-06T07:31:27.517Z,2.00
2018-03-06T07:33:59.697Z,1.90
2018-03-06T07:36:31.027Z,1.50
2018-03-06T07:39:45.112Z,1.50
2018-03-06T07:42:16.395Z,1.80
2018-03-06T07:44:49.142Z,2.20
2018-03-06T07:47:21.183Z,2.30
2018-03-06T07:49:53.158Z,2.10
2018-03-06T07:52:25.512Z,1.90
2018-03-06T07:54:56.268Z,1.90
2018-03-06T07:57:28.359Z,1.20
2018-03-06T08:00:13.716Z,1.20
2018-03-06T08:02:49.128Z,1.20
2018-03-06T08:06:03.692Z,1.10
2018-03-06T08:11:58.453Z,1.20
2018-03-06T08:14:30.757Z,0.90
2018-03-06T08:17:01.761Z,0.90
2018-03-06T08:19:32.908Z,1.30
2018-03-06T08:22:03.671Z,1.50
2018-03-06T08:24:35.607Z,1.20
2018-03-06T08:27:07.920Z,1.30
2018-03-06T08:30:14.387Z,1.30
2018-03-06T08:33:07.347Z,1.10
2018-03-06T08:36:14.516Z,1.30
2018-03-06T08:42:27.951Z,1.10
2018-03-06T08:45:48.022Z,1.20
2018-03-06T08:48:36.918Z,1.20
2018-03-06T08:54:53.104Z,1.50
2018-03-06T08:57:32.180Z,1.50
2018-03-06T09:00:04.608Z,1.90
2018-03-06T09:02:38.226Z,1.70
2018-03-06T09:05:24.643Z,1.50
2018-03-06T09:07:55.370Z,1.40
2018-03-06T09:10:28.685Z,1.40
2018-03-06T09:13:01.965Z,1.60
2018-03-06T09:15:35.411Z,1.60
2018-03-06T09:18:06.702Z,1.50
2018-03-06T09:20:43.395Z,1.60
2018-03-06T09:23:19.728Z,1.50
2018-03-06T09:25:50.946Z,1.60
2018-03-06T09:28:23.285Z,1.70
2018-03-06T09:30:56.526Z,1.60
2018-03-06T09:33:38.178Z,1.70
2018-03-06T09:36:14.880Z,1.90
2018-03-06T09:38:46.536Z,2.00
2018-03-06T09:41:20.075Z,1.70
2018-03-06T09:43:52.305Z,2.00
2018-03-06T09:46:23.863Z,1.90
2018-03-06T09:49:39.569Z,2.00
2018-03-06T09:55:46.998Z,2.90
2018-03-06T09:58:17.738Z,2.80
2018-03-06T10:00:49.020Z,3.00
2018-03-06T10:06:56.232Z,2.10
2018-03-06T10:09:28.570Z,2.40
2018-03-06T10:12:07.892Z,2.50
2018-03-06T10:14:38.562Z,2.60
2018-03-06T10:17:26.155Z,2.30
2018-03-06T10:20:06.182Z,2.60
2018-03-06T10:22:41.259Z,2.60
2018-03-06T10:25:15.291Z,2.20
2018-03-06T10:28:12.180Z,2.20
2018-03-06T10:30:45.737Z,2.20
2018-03-06T10:33:18.579Z,2.40
2018-03-06T10:35:52.568Z,2.10
2018-03-06T10:38:33.389Z,2.10
2018-03-06T10:41:43.914Z,2.10
2018-03-06T10:44:15.839Z,2.00
2018-03-06T11:00:29.223Z,2.50
2018-03-06T11:03:35.740Z,2.30
2018-03-06T11:06:12.612Z,2.40
2018-03-06T11:09:07.857Z,2.80
2018-03-06T11:11:55.939Z,2.10
2018-03-06T11:17:23.997Z,2.00
2018-03-06T11:19:56.428Z,2.10
2018-03-06T11:22:27.472Z,2.10
2018-03-06T11:25:39.915Z,2.20
2018-03-06T11:28:16.036Z,2.10
2018-03-06T11:30:47.791Z,2.20
2018-03-06T11:33:33.511Z,2.20
2018-03-06T11:36:12.199Z,2.10
2018-03-06T11:38:43.291Z,2.60
2018-03-06T11:41:29.576Z,2.90
2018-03-06T11:44:04.580Z,2.60
2018-03-06T11:46:35.670Z,3.00
2018-03-06T11:49:06.688Z,3.00
2018-03-06T11:51:37.763Z,3.60
2018-03-06T11:54:19.001Z,3.70
2018-03-06T11:59:44.670Z,2.80
2018-03-06T12:02:17.254Z,3.50
2018-03-06T12:04:51.385Z,3.50
2018-03-06T12:08:33.622Z,2.70
2018-03-06T12:11:10.824Z,2.70
2018-03-06T12:13:53.341Z,3.50
2018-03-06T12:16:27.778Z,3.30
2018-03-06T12:18:59.927Z,3.40
2018-03-06T12:21:31.901Z,3.70
2018-03-06T12:24:05.468Z,4.20
2018-03-06T12:26:36.124Z,4.80
2018-03-06T12:29:09.030Z,5.20
2018-03-06T12:31:40.120Z,5.60
2018-03-06T12:34:48.273Z,5.20
2018-03-06T12:37:19.630Z,5.30
2018-03-06T12:40:54.043Z,5.50
2018-03-06T12:43:37.156Z,6.00
2018-03-06T12:46:10.076Z,6.40
2018-03-06T12:48:41.692Z,5.90
2018-03-06T12:51:12.754Z,5.90
2018-03-06T12:53:49.760Z,5.90
2018-03-06T12:56:32.851Z,6.10
2018-03-06T12:59:04.766Z,6.20
2018-03-06T13:01:35.523Z,5.60
2018-03-06T13:04:06.509Z,5.70
2018-03-06T13:06:38.485Z,5.90
2018-03-06T13:09:15.149Z,5.90
2018-03-06T13:12:02.406Z,6.00
2018-03-06T13:14:33.746Z,5.90
2018-03-06T13:17:11.960Z,6.30
2018-03-06T13:19:43.250Z,6.50
2018-03-06T13:22:14.745Z,6.20
2018-03-06T13:24:45.896Z,6.60
2018-03-06T13:27:17.963Z,6.90
2018-03-06T13:29:49.491Z,6.20
2018-03-06T13:32:20.123Z,5.60
2018-03-06T13:34:52.464Z,6.50
2018-03-06T13:37:29.637Z,7.20
2018-03-06T13:40:06.718Z,7.20
2018-03-06T13:42:40.991Z,7.30
2018-03-06T13:45:12.084Z,6.30
2018-03-06T13:47:45.972Z,5.00
2018-03-06T13:50:21.814Z,5.00
2018-03-06T13:56:22.949Z,4.10
2018-03-06T13:58:57.906Z,4.10
2018-03-06T14:01:33.041Z,3.90
2018-03-06T14:04:04.507Z,4.10
2018-03-06T14:06:58.484Z,4.10
2018-03-06T14:09:35.710Z,3.90
2018-03-06T14:12:07.691Z,3.70
2018-03-06T14:15:13.855Z,3.80
2018-03-06T14:18:05.608Z,4.00
2018-03-06T14:20:38.721Z,4.40
2018-03-06T14:23:10.185Z,4.70
2018-03-06T14:26:14.022Z,4.70
2018-03-06T14:28:45.215Z,4.40
2018-03-06T14:31:30.159Z,4.00
2018-03-06T14:49:44.429Z,5.50
2018-03-06T14:52:14.826Z,5.60
2018-03-06T14:58:06.199Z,5.50
2018-03-06T15:00:49.512Z,5.50
2018-03-06T15:09:58.157Z,6.50
2018-03-06T15:15:27.607Z,7.10
2018-03-06T15:18:07.961Z,6.90
2018-03-06T15:20:39.110Z,6.90
2018-03-06T15:23:12.368Z,6.50
2018-03-06T15:25:46.978Z,6.20
2018-03-06T15:31:48.083Z,5.50
2018-03-06T15:34:29.287Z,5.60
2018-03-06T15:37:42.427Z,5.20
2018-03-06T15:40:26.449Z,5.10
2018-03-06T15:43:35.538Z,4.90
2018-03-06T15:46:06.367Z,5.20
2018-03-06T15:48:36.985Z,4.60
2018-03-06T15:51:14.833Z,4.50
2018-03-06T15:53:58.256Z,4.50
2018-03-06T15:56:34.418Z,4.60
2018-03-06T15:59:52.861Z,4.50
2018-03-06T16:02:58.303Z,4.40
2018-03-06T16:08:53.743Z,4.50
2018-03-06T16:11:52.335Z,4.50
2018-03-06T16:14:27.563Z,4.60
2018-03-06T16:17:18.541Z,4.50
2018-03-06T16:20:15.559Z,4.50
2018-03-06T16:23:27.714Z,4.30
2018-03-06T16:26:01.803Z,4.30
2018-03-06T16:28:35.164Z,4.30
2018-03-06T16:36:08.166Z,4.30
2018-03-06T16:38:40.112Z,4.30
2018-03-06T16:41:15.495Z,4.30
2018-03-06T16:44:09.421Z,4.20
2018-03-06T16:46:52.144Z,4.20
2018-03-06T16:49:26.425Z,4.10
2018-03-06T16:52:06.427Z,4.10
2018-03-06T16:54:42.155Z,4.00
2018-03-06T16:57:23.265Z,4.20
2018-03-06T16:59:55.720Z,4.40
2018-03-06T17:02:27.369Z,4.40
2018-03-06T17:05:10.424Z,4.40
2018-03-06T17:15:04.056Z,4.20
2018-03-06T17:17:35.124Z,4.30
2018-03-06T17:20:08.010Z,4.20
2018-03-06T17:22:41.358Z,4.20
2018-03-06T17:25:12.672Z,4.10
2018-03-06T17:27:47.420Z,4.50
2018-03-06T17:33:59.279Z,4.40
2018-03-06T17:36:32.195Z,4.40
2018-03-06T17:39:11.692Z,4.50
2018-03-06T17:41:43.977Z,4.40
2018-03-06T17:44:54.847Z,4.40
2018-03-06T17:47:28.360Z,4.30
2018-03-06T17:50:00.013Z,4.10
2018-03-06T17:52:35.549Z,4.20
2018-03-06T17:55:06.518Z,4.00
2018-03-06T17:57:37.876Z,4.00
2018-03-06T18:00:11.692Z,4.00
2018-03-06T18:02:45.455Z,4.50
2018-03-06T18:05:16.965Z,4.50
2018-03-06T18:07:48.053Z,4.40
2018-03-06T18:10:18.806Z,4.60
2018-03-06T18:12:51.572Z,4.40
2018-03-06T18:15:22.429Z,4.50
2018-03-06T18:17:53.200Z,4.70
2018-03-06T18:20:23.916Z,4.40
2018-03-06T18:22:56.006Z,4.40
2018-03-06T18:25:27.267Z,4.50
2018-03-06T18:27:58.459Z,4.70
2018-03-06T18:30:30.133Z,4.70
2018-03-06T18:33:00.635Z,4.70
2018-03-06T18:35:30.843Z,4.70
2018-03-06T18:38:01.912Z,4.80
2018-03-06T18:40:33.895Z,4.80
2018-03-06T18:43:07.832Z,4.40
2018-03-06T18:45:39.642Z,4.50
2018-03-06T18:48:09.781Z,4.40
2018-03-06T18:50:50.129Z,4.40
2018-03-06T18:53:21.031Z,4.20
2018-03-06T18:55:51.572Z,4.00
2018-03-06T18:58:30.002Z,3.90
2018-03-06T19:01:15.143Z,4.10
2018-03-06T19:06:05.014Z,4.10
2018-03-06T19:08:36.627Z,4.10
2018-03-06T19:11:34.030Z,4.10
2018-03-06T19:14:04.403Z,4.10
2018-03-06T19:16:36.555Z,3.70
2018-03-06T19:19:19.487Z,3.60
2018-03-06T19:21:51.843Z,3.60
2018-03-06T19:24:23.251Z,3.40
2018-03-06T19:26:54.432Z,3.40
2018-03-06T19:29:27.060Z,3.30
2018-03-06T19:31:58.336Z,3.20
2018-03-06T19:34:29.843Z,3.40
2018-03-06T19:37:05.635Z,3.50
2018-03-06T19:39:39.504Z,3.50
2018-03-06T19:42:10.999Z,3.40
2018-03-06T19:44:42.604Z,3.50
2018-03-06T19:47:13.536Z,3.40
2018-03-06T19:49:45.046Z,3.40
2018-03-06T19:52:16.004Z,3.50
2018-03-06T19:54:47.618Z,3.50
2018-03-06T19:57:18.091Z,3.30
2018-03-06T19:59:50.249Z,3.40
2018-03-06T20:02:20.541Z,3.40
2018-03-06T20:04:51.255Z,3.60
2018-03-06T20:07:21.632Z,3.50
2018-03-06T20:09:52.861Z,3.70
2018-03-06T20:12:24.555Z,3.70
2018-03-06T20:15:14.862Z,3.60
2018-03-06T20:17:46.672Z,3.80
2018-03-06T20:20:18.874Z,3.70
2018-03-06T20:22:50.619Z,3.60
2018-03-06T20:25:27.881Z,3.50
2018-03-06T20:27:59.720Z,3.40
2018-03-06T20:30:36.306Z,3.30
2018-03-06T20:33:16.817Z,3.60
2018-03-06T20:35:47.857Z,3.70
2018-03-06T20:38:22.568Z,3.60
2018-03-06T20:40:53.540Z,3.70
2018-03-06T20:43:24.616Z,3.70
2018-03-06T20:45:59.302Z,3.70
2018-03-06T20:48:30.444Z,3.70
2018-03-06T20:51:01.127Z,3.70
2018-03-06T20:53:37.334Z,3.60
2018-03-06T20:56:08.428Z,3.60
2018-03-06T20:58:40.113Z,3.70
2018-03-06T21:01:11.841Z,3.80
2018-03-06T21:03:43.824Z,3.80
2018-03-06T21:06:14.711Z,3.70
2018-03-06T21:08:45.937Z,3.60
2018-03-06T21:11:16.749Z,3.60
2018-03-06T21:13:49.060Z,3.50
2018-03-06T21:16:20.312Z,3.50
2018-03-06T21:18:51.328Z,3.50
2018-03-06T21:21:22.357Z,3.60
2018-03-06T21:23:54.542Z,3.50
2018-03-06T21:26:25.356Z,3.60
2018-03-06T21:28:56.197Z,3.70
2018-03-06T21:31:26.907Z,3.70
2018-03-06T21:33:57.381Z,3.60
2018-03-06T21:36:28.817Z,3.90
2018-03-06T21:39:00.107Z,4.00
2018-03-06T21:41:31.736Z,3.90
2018-03-06T21:44:04.954Z,4.00
2018-03-06T21:46:36.841Z,3.80
2018-03-06T21:49:09.520Z,3.80
2018-03-06T21:51:42.022Z,3.50
2018-03-06T21:54:13.988Z,3.50
2018-03-06T21:56:44.731Z,3.60
2018-03-06T21:59:16.570Z,3.60
2018-03-06T22:01:48.377Z,3.60
2018-03-06T22:04:20.477Z,3.40
2018-03-06T22:06:51.714Z,3.40
2018-03-06T22:09:25.568Z,3.30
2018-03-06T22:11:57.715Z,3.30
2018-03-06T22:14:30.506Z,3.50
2018-03-06T22:17:01.983Z,3.50
2018-03-06T22:19:32.952Z,3.40
2018-03-06T22:22:03.786Z,3.40
2018-03-06T22:24:34.341Z,3.40
2018-03-06T22:27:05.720Z,3.50
2018-03-06T22:29:36.991Z,3.60
2018-03-06T22:32:08.203Z,3.90
2018-03-06T22:34:40.135Z,3.90
2018-03-06T22:37:11.326Z,3.90
2018-03-06T22:39:43.988Z,3.90
2018-03-06T22:42:15.857Z,4.00
2018-03-06T22:44:46.877Z,3.90
2018-03-06T22:47:18.909Z,3.80
2018-03-06T22:49:49.247Z,3.80
2018-03-06T22:52:20.363Z,3.70
2018-03-06T22:54:52.160Z,4.00
2018-03-06T22:57:22.986Z,4.00
2018-03-06T22:59:54.260Z,3.80
2018-03-06T23:02:25.090Z,3.80
2018-03-06T23:04:56.333Z,3.90
2018-03-06T23:07:27.612Z,4.00
2018-03-06T23:09:59.335Z,4.00
2018-03-06T23:12:31.106Z,4.10
2018-03-06T23:15:04.032Z,4.10
2018-03-06T23:17:35.771Z,4.30
2018-03-06T23:20:06.788Z,4.30
2018-03-06T23:22:37.899Z,4.30
2018-03-06T23:25:09.266Z,4.40
2018-03-06T23:27:40.727Z,4.50
2018-03-06T23:30:11.919Z,4.60
2018-03-06T23:32:43.112Z,4.70
2018-03-06T23:35:14.200Z,4.80
2018-03-06T23:37:46.220Z,4.90
2018-03-06T23:40:17.454Z,4.90
2018-03-06T23:42:48.554Z,4.90
2018-03-06T23:45:19.110Z,5.00
2018-03-06T23:47:49.965Z,5.10
2018-03-06T23:50:21.349Z,5.10
2018-03-06T23:52:51.784Z,5.10
2018-03-06T23:55:22.814Z,5.10
2018-03-06T23:57:53.905Z,5.10
